createdAt,value
2019-03-19T00:00:42.778Z,19.15
2019-03-19T00:01:47.025Z,15.80
2019-03-19T00:02:54.032Z,16.80
2019-03-19T00:04:04.153Z,17.42
2019-03-19T00:05:10.146Z,16.90
2019-03-19T00:06:20.008Z,15.32
2019-03-19T00:07:24.761Z,18.60
2019-03-19T00:08:30.641Z,17.65
2019-03-19T00:09:38.583Z,16.30
2019-03-19T00:10:45.170Z,15.50
2019-03-19T00:11:49.818Z,18.52
2019-03-19T00:12:59.120Z,15.78
2019-03-19T00:14:03.428Z,20.65
2019-03-19T00:15:17.459Z,16.15
2019-03-19T00:16:21.857Z,16.40
2019-03-19T00:17:29.190Z,13.72
2019-03-19T00:18:40.448Z,16.00
2019-03-19T00:20:00.488Z,14.40
2019-03-19T00:23:16.474Z,15.05
2019-03-19T00:27:39.974Z,16.73
2019-03-19T00:33:33.850Z,14.93
2019-03-19T00:34:45.412Z,17.40
2019-03-19T00:47:49.376Z,17.17
2019-03-19T00:49:09.368Z,18.45
2019-03-19T00:51:41.780Z,17.30
2019-03-19T00:53:04.686Z,16.20
2019-03-19T00:54:46.207Z,16.07
2019-03-19T00:56:36.843Z,15.98
2019-03-19T00:56:58.972Z,14.90
2019-03-19T00:57:45.858Z,16.95
2019-03-19T01:04:24.435Z,17.35
2019-03-19T01:06:43.808Z,13.05
2019-03-19T01:06:48.612Z,17.95
2019-03-19T01:09:27.327Z,14.93
2019-03-19T01:10:49.254Z,15.98
2019-03-19T01:29:11.803Z,15.00
2019-03-19T01:32:58.528Z,20.00
2019-03-19T01:42:22.381Z,15.53
2019-03-19T02:02:53.452Z,20.05
2019-03-19T02:04:03.800Z,15.95
2019-03-19T02:30:38.693Z,13.83
2019-03-19T02:33:17.301Z,14.05
2019-03-19T02:34:30.673Z,16.32
2019-03-19T02:35:41.895Z,16.57
2019-03-19T02:36:42.788Z,17.35
2019-03-19T02:38:12.533Z,12.78
2019-03-19T02:41:55.916Z,14.23
2019-03-19T02:43:03.678Z,15.05
2019-03-19T02:50:11.994Z,13.03
2019-03-19T02:54:21.448Z,13.80
2019-03-19T02:54:31.154Z,13.28
2019-03-19T02:56:53.496Z,18.48
2019-03-19T02:57:49.609Z,15.15
2019-03-19T02:58:14.828Z,14.60
2019-03-19T02:59:25.587Z,15.88
2019-03-19T03:03:57.558Z,14.98
2019-03-19T03:05:13.862Z,15.72
2019-03-19T03:08:35.474Z,18.15
2019-03-19T03:09:36.599Z,16.45
2019-03-19T03:10:40.346Z,15.10
2019-03-19T03:11:51.024Z,15.83
2019-03-19T03:12:58.603Z,16.97
2019-03-19T03:14:04.588Z,14.50
2019-03-19T03:15:37.767Z,18.48
2019-03-19T03:16:25.307Z,12.00
2019-03-19T03:17:40.956Z,14.00
2019-03-19T03:19:53.789Z,13.55
2019-03-19T03:20:23.389Z,16.70
2019-03-19T03:21:30.296Z,16.23
2019-03-19T03:25:12.355Z,14.65
2019-03-19T03:26:21.567Z,12.95
2019-03-19T03:27:37.710Z,16.30
2019-03-19T03:34:35.438Z,13.30
2019-03-19T03:36:00.251Z,14.23
2019-03-19T03:37:01.392Z,17.70
2019-03-19T03:38:27.076Z,17.02
2019-03-19T03:39:23.494Z,14.25
2019-03-19T03:40:32.618Z,12.68
2019-03-19T03:42:54.035Z,15.72
2019-03-19T03:43:01.616Z,14.98
2019-03-19T03:44:17.353Z,15.40
2019-03-19T03:45:23.941Z,15.03
2019-03-19T03:47:29.871Z,19.65
2019-03-19T03:50:51.024Z,14.90
2019-03-19T03:52:25.836Z,17.82
2019-03-19T03:53:17.032Z,15.70
2019-03-19T03:54:31.623Z,13.88
2019-03-19T03:55:37.188Z,18.12
2019-03-19T03:57:01.277Z,14.90
2019-03-19T03:59:18.418Z,13.80
2019-03-19T04:00:29.892Z,17.02
2019-03-19T04:01:52.621Z,16.48
2019-03-19T04:03:05.521Z,18.92
2019-03-19T04:05:04.296Z,12.85
2019-03-19T04:05:23.298Z,14.87
2019-03-19T04:06:39.744Z,15.95
2019-03-19T04:09:21.734Z,15.85
2019-03-19T04:10:55.123Z,14.50
2019-03-19T04:11:59.660Z,12.47
2019-03-19T04:14:42.590Z,18.70
2019-03-19T04:19:08.084Z,15.65
2019-03-19T04:20:21.530Z,17.37
2019-03-19T04:21:26.917Z,15.28
2019-03-19T04:22:32.596Z,15.85
2019-03-19T04:23:41.487Z,15.35
2019-03-19T04:25:42.734Z,13.95
2019-03-19T04:26:12.557Z,15.60
2019-03-19T04:27:21.177Z,14.53
2019-03-19T04:28:40.422Z,14.35
2019-03-19T04:30:01.463Z,15.72
2019-03-19T04:31:55.883Z,17.25
2019-03-19T04:33:04.099Z,18.17
2019-03-19T04:34:09.887Z,16.30
2019-03-19T04:35:33.072Z,14.03
2019-03-19T04:36:41.699Z,13.78
2019-03-19T04:37:49.195Z,15.83
2019-03-19T04:39:04.074Z,15.25
2019-03-19T04:40:24.282Z,14.07
2019-03-19T04:41:31.505Z,15.05
2019-03-19T04:42:37.585Z,16.15
2019-03-19T04:43:41.894Z,16.02
2019-03-19T04:45:02.282Z,17.42
2019-03-19T04:47:09.015Z,15.45
2019-03-19T04:48:16.487Z,13.60
2019-03-19T04:49:29.695Z,14.93
2019-03-19T04:51:15.418Z,16.57
2019-03-19T04:53:27.142Z,13.72
2019-03-19T04:54:05.731Z,13.18
2019-03-19T04:55:17.353Z,19.12
2019-03-19T04:56:25.080Z,13.83
2019-03-19T04:57:32.703Z,12.37
2019-03-19T04:58:49.147Z,20.25
2019-03-19T05:00:02.486Z,15.68
2019-03-19T05:01:23.924Z,11.15
2019-03-19T05:02:48.627Z,14.83
2019-03-19T05:04:28.519Z,21.70
2019-03-19T05:05:39.325Z,13.85
2019-03-19T05:06:59.447Z,15.08
2019-03-19T05:08:03.278Z,14.83
2019-03-19T05:09:28.333Z,15.45
2019-03-19T05:28:45.898Z,16.62
2019-03-19T05:29:53.381Z,15.98
2019-03-19T05:31:20.405Z,14.93
2019-03-19T05:35:36.342Z,14.53
2019-03-19T05:40:01.021Z,12.28
2019-03-19T05:43:56.135Z,14.58
2019-03-19T05:44:23.966Z,16.07
2019-03-19T05:44:43.403Z,15.18
2019-03-19T05:45:52.015Z,16.62
2019-03-19T05:46:56.952Z,15.13
2019-03-19T05:48:06.071Z,19.15
2019-03-19T05:49:27.351Z,20.95
2019-03-19T05:50:37.574Z,12.70
2019-03-19T05:51:43.989Z,16.95
2019-03-19T05:52:57.243Z,15.98
2019-03-19T05:54:09.865Z,13.40
2019-03-19T05:56:12.987Z,14.38
2019-03-19T05:56:34.354Z,15.25
2019-03-19T05:57:48.963Z,15.25
2019-03-19T05:59:49.347Z,14.90
2019-03-19T05:59:56.218Z,16.57
2019-03-19T06:01:19.115Z,10.43
2019-03-19T06:02:17.036Z,11.97
2019-03-19T06:03:23.498Z,12.35
2019-03-19T06:04:48.367Z,13.20
2019-03-19T06:06:22.077Z,15.35
2019-03-19T06:07:06.608Z,15.63
2019-03-19T06:09:23.515Z,12.98
2019-03-19T06:10:08.846Z,14.40
2019-03-19T06:11:13.687Z,12.37
2019-03-19T06:12:19.159Z,18.57
2019-03-19T06:13:32.131Z,13.38
2019-03-19T06:14:42.714Z,15.70
2019-03-19T06:15:57.486Z,11.12
2019-03-19T06:17:07.493Z,16.05
2019-03-19T06:20:55.739Z,15.70
2019-03-19T06:22:14.321Z,12.78
2019-03-19T06:23:27.711Z,15.65
2019-03-19T06:24:37.581Z,11.95
2019-03-19T06:27:29.555Z,12.45
2019-03-19T06:28:47.845Z,17.42
2019-03-19T06:29:46.387Z,17.57
2019-03-19T06:30:56.127Z,16.67
2019-03-19T06:32:02.191Z,12.68
2019-03-19T06:33:16.801Z,13.88
2019-03-19T06:34:23.901Z,18.65
2019-03-19T06:36:45.124Z,13.70
2019-03-19T06:37:11.457Z,15.32
2019-03-19T06:37:57.829Z,14.75
2019-03-19T06:39:04.981Z,16.42
2019-03-19T06:40:16.170Z,13.72
2019-03-19T06:42:28.950Z,16.97
2019-03-19T06:43:41.592Z,17.07
2019-03-19T06:44:42.475Z,15.93
2019-03-19T06:45:48.305Z,17.65
2019-03-19T06:46:56.714Z,11.10
2019-03-19T06:48:08.236Z,11.78
2019-03-19T06:49:12.741Z,19.57
2019-03-19T06:50:18.994Z,17.40
2019-03-19T06:51:24.718Z,13.93
2019-03-19T06:54:26.480Z,16.42
2019-03-19T06:55:57.500Z,14.28
2019-03-19T06:57:00.908Z,13.35
2019-03-19T06:59:40.644Z,14.73
2019-03-19T07:00:44.954Z,13.60
2019-03-19T07:02:28.720Z,15.28
2019-03-19T07:03:17.500Z,15.88
2019-03-19T07:04:29.259Z,19.77
2019-03-19T07:05:44.674Z,20.52
2019-03-19T07:09:38.130Z,18.20
2019-03-19T07:10:46.143Z,15.53
2019-03-19T07:11:53.859Z,14.38
2019-03-19T07:13:06.363Z,16.57
2019-03-19T07:14:28.128Z,15.58
2019-03-19T10:11:21.790Z,14.03
2019-03-19T10:12:32.691Z,17.62
2019-03-19T10:13:34.000Z,17.87
2019-03-19T10:16:15.178Z,18.45
2019-03-19T10:18:46.184Z,21.93
2019-03-19T10:19:56.829Z,14.95
2019-03-19T10:21:15.010Z,15.38
2019-03-19T10:22:26.264Z,19.95
2019-03-19T10:23:37.225Z,14.03
2019-03-19T10:26:18.480Z,15.65
2019-03-19T10:28:32.047Z,16.73
2019-03-19T10:28:56.172Z,19.62
2019-03-19T10:29:56.476Z,16.85
2019-03-19T10:32:21.699Z,15.38
2019-03-19T10:35:05.702Z,17.50
2019-03-19T10:36:42.293Z,20.52
2019-03-19T10:39:09.011Z,17.37
2019-03-19T10:45:25.097Z,18.60
2019-03-19T10:46:34.070Z,19.62
2019-03-19T10:47:25.055Z,12.85
2019-03-19T10:48:34.472Z,12.13
2019-03-19T10:49:48.405Z,16.32
2019-03-19T10:50:57.898Z,17.10
2019-03-19T10:57:44.875Z,18.70
2019-03-19T11:01:55.240Z,19.45
2019-03-19T11:03:10.672Z,18.35
2019-03-19T11:09:59.301Z,18.35
2019-03-19T11:12:56.024Z,16.25
2019-03-19T11:15:41.514Z,21.82
2019-03-19T11:16:17.853Z,19.82
2019-03-19T11:18:16.242Z,13.93
2019-03-19T11:19:35.051Z,20.85
2019-03-19T11:22:24.773Z,17.70
2019-03-19T11:23:48.127Z,23.47
2019-03-19T11:26:34.098Z,26.90
2019-03-19T11:29:05.110Z,21.57
2019-03-19T11:30:48.887Z,27.60
2019-03-19T11:33:29.240Z,17.50
2019-03-19T11:34:46.270Z,17.12
2019-03-19T11:36:11.912Z,28.77
2019-03-19T11:38:55.279Z,18.55
2019-03-19T11:40:34.516Z,15.43
2019-03-19T11:41:54.675Z,17.12
2019-03-19T11:43:06.081Z,13.20
2019-03-19T11:45:35.853Z,17.10
2019-03-19T11:46:48.601Z,15.90
2019-03-19T11:48:26.524Z,16.45
2019-03-19T11:49:22.570Z,11.90
2019-03-19T11:54:25.095Z,16.93
2019-03-19T11:57:29.869Z,19.48
2019-03-19T11:59:06.871Z,16.02
2019-03-19T12:03:15.321Z,17.02
2019-03-19T12:10:40.758Z,19.20
2019-03-19T12:11:45.811Z,18.80
2019-03-19T12:12:14.371Z,14.28
2019-03-19T12:13:39.917Z,24.20
2019-03-19T12:18:57.564Z,30.35
2019-03-19T12:20:16.480Z,18.42
2019-03-19T12:21:23.339Z,19.02
2019-03-19T12:22:35.122Z,22.05
2019-03-19T12:24:00.538Z,17.67
2019-03-19T12:25:06.050Z,20.57
2019-03-19T12:26:27.886Z,18.98
2019-03-19T12:28:50.117Z,28.92
2019-03-19T12:30:08.476Z,16.62
2019-03-19T12:33:02.097Z,22.02
2019-03-19T12:42:47.025Z,20.43
2019-03-19T12:51:29.179Z,22.45
2019-03-19T12:54:32.614Z,17.35
2019-03-19T12:55:39.896Z,21.80
2019-03-19T13:01:32.502Z,15.65
2019-03-19T13:02:44.667Z,18.90
2019-03-19T13:03:58.328Z,20.45
2019-03-19T13:06:21.537Z,20.68
2019-03-19T13:07:30.510Z,20.75
2019-03-19T13:08:47.076Z,21.20
2019-03-19T13:12:58.433Z,23.95
2019-03-19T13:14:07.871Z,18.37
2019-03-19T13:15:52.019Z,30.62
2019-03-19T13:17:03.574Z,36.88
2019-03-19T13:18:19.280Z,28.83
2019-03-19T13:19:22.253Z,21.95
2019-03-19T13:20:41.193Z,21.00
2019-03-19T13:22:21.654Z,17.50
2019-03-19T13:29:10.950Z,14.80
2019-03-19T13:29:53.447Z,16.15
2019-03-19T13:30:57.658Z,18.35
2019-03-19T13:33:48.601Z,16.77
2019-03-19T13:35:01.214Z,21.40
2019-03-19T13:36:47.845Z,22.55
2019-03-19T13:37:54.622Z,29.37
2019-03-19T13:39:12.759Z,22.32
2019-03-19T13:40:24.115Z,17.25
2019-03-19T13:41:58.245Z,22.93
2019-03-19T13:42:44.610Z,21.02
2019-03-19T13:44:01.425Z,19.10
2019-03-19T13:45:23.238Z,20.25
2019-03-19T13:46:40.194Z,20.95
2019-03-19T13:48:46.602Z,19.17
2019-03-19T13:49:35.644Z,24.23
2019-03-19T13:52:13.344Z,24.67
2019-03-19T13:53:38.247Z,20.02
2019-03-19T13:57:55.569Z,18.45
2019-03-19T14:05:25.220Z,15.83
2019-03-19T14:08:21.763Z,18.98
2019-03-19T14:09:30.971Z,19.57
2019-03-19T14:10:44.930Z,19.20
2019-03-19T14:11:53.428Z,23.70
2019-03-19T14:13:08.282Z,22.07
2019-03-19T14:14:16.271Z,28.15
2019-03-19T14:17:02.745Z,14.40
2019-03-19T14:18:25.582Z,19.85
2019-03-19T14:19:22.944Z,24.18
2019-03-19T14:20:30.613Z,21.90
2019-03-19T14:21:46.665Z,12.47
2019-03-19T14:23:06.190Z,17.17
2019-03-19T14:24:18.183Z,20.12
2019-03-19T14:25:26.566Z,19.15
2019-03-19T14:26:35.277Z,19.65
2019-03-19T14:27:49.314Z,13.35
2019-03-19T14:28:58.259Z,21.73
2019-03-19T14:30:09.531Z,17.67
2019-03-19T14:35:57.367Z,17.15
2019-03-19T14:37:07.694Z,26.00
2019-03-19T14:40:47.491Z,15.55
2019-03-19T14:48:09.227Z,22.58
2019-03-19T14:49:46.330Z,17.52
2019-03-19T14:50:45.358Z,19.52
2019-03-19T14:52:00.465Z,18.50
2019-03-19T14:53:11.707Z,16.30
2019-03-19T14:55:47.029Z,21.35
2019-03-19T14:56:55.552Z,24.85
2019-03-19T14:58:03.169Z,25.32
2019-03-19T15:00:37.643Z,22.75
2019-03-19T15:02:02.235Z,25.62
2019-03-19T15:05:33.612Z,18.10
2019-03-19T15:05:51.879Z,23.38
2019-03-19T15:11:34.214Z,17.10
2019-03-19T15:12:45.144Z,25.25
2019-03-19T15:13:51.631Z,20.95
2019-03-19T15:17:24.756Z,23.62
2019-03-19T15:22:08.650Z,23.10
2019-03-19T15:24:03.692Z,22.90
2019-03-19T15:24:37.829Z,20.15
2019-03-19T15:25:37.319Z,27.35
2019-03-19T15:27:57.510Z,22.00
2019-03-19T15:28:40.946Z,22.15
2019-03-19T15:31:14.658Z,19.80
2019-03-19T15:31:14.708Z,25.15
2019-03-19T15:32:29.056Z,23.02
2019-03-19T15:33:55.990Z,22.58
2019-03-19T15:35:10.634Z,21.15
2019-03-19T15:36:04.077Z,20.12
2019-03-19T15:38:20.230Z,24.82
2019-03-19T15:39:27.325Z,22.87
2019-03-19T15:40:35.373Z,23.32
2019-03-19T15:41:43.442Z,24.37
2019-03-19T15:45:27.476Z,21.85
2019-03-19T16:09:37.901Z,22.40
2019-03-19T16:11:42.713Z,21.52
2019-03-19T16:12:41.816Z,22.22
2019-03-19T16:13:45.353Z,23.62
2019-03-19T16:15:07.724Z,20.25
2019-03-19T16:16:17.372Z,23.27
2019-03-19T16:17:29.864Z,21.35
2019-03-19T16:18:45.739Z,17.77
2019-03-19T16:19:47.542Z,22.77
2019-03-19T16:22:30.875Z,20.23
2019-03-19T16:23:50.682Z,18.05
2019-03-19T16:24:55.290Z,20.37
2019-03-19T16:26:01.245Z,20.17
2019-03-19T16:27:07.152Z,17.52
2019-03-19T16:28:18.579Z,19.37
2019-03-19T16:29:17.340Z,21.12
2019-03-19T16:30:25.353Z,20.10
2019-03-19T16:31:32.200Z,19.70
2019-03-19T16:32:39.028Z,22.73
2019-03-19T16:33:47.773Z,18.80
2019-03-19T16:34:52.182Z,18.75
2019-03-19T16:35:58.302Z,17.65
2019-03-19T16:37:14.941Z,22.98
2019-03-19T16:38:14.554Z,15.30
2019-03-19T16:39:20.392Z,20.43
2019-03-19T16:40:26.436Z,17.80
2019-03-19T16:41:32.574Z,15.68
2019-03-19T16:44:11.918Z,21.57
2019-03-19T16:45:19.721Z,19.73
2019-03-19T16:46:29.448Z,17.55
2019-03-19T16:47:49.408Z,19.82
2019-03-19T16:48:54.441Z,18.48
2019-03-19T16:51:34.388Z,19.82
2019-03-19T16:54:12.441Z,21.85
2019-03-19T16:55:18.015Z,23.30
2019-03-19T16:56:22.208Z,22.85
2019-03-19T16:57:33.137Z,17.37
2019-03-19T17:02:05.528Z,25.50
2019-03-19T17:03:02.583Z,23.65
2019-03-19T17:04:22.175Z,24.90
2019-03-19T17:05:27.621Z,22.95
2019-03-19T17:06:35.813Z,24.77
2019-03-19T17:07:43.803Z,28.27
2019-03-19T17:08:49.691Z,28.23
2019-03-19T17:09:55.371Z,21.33
2019-03-19T17:11:02.509Z,26.35
2019-03-19T17:12:14.251Z,26.75
2019-03-19T17:13:18.670Z,27.62
2019-03-19T17:14:27.884Z,26.12
2019-03-19T17:15:35.733Z,25.08
2019-03-19T17:16:44.499Z,25.30
2019-03-19T17:17:52.296Z,28.12
2019-03-19T17:19:00.488Z,23.75
2019-03-19T17:20:13.784Z,28.67
2019-03-19T17:22:57.519Z,25.97
2019-03-19T17:23:56.963Z,23.32
2019-03-19T17:25:01.274Z,24.55
2019-03-19T17:26:11.724Z,26.73
2019-03-19T17:27:17.174Z,28.27
2019-03-19T17:28:22.960Z,21.77
2019-03-19T17:29:27.303Z,21.37
2019-03-19T17:30:38.494Z,23.60
2019-03-19T17:32:12.524Z,24.05
2019-03-19T17:33:06.324Z,25.10
2019-03-19T17:34:17.007Z,26.10
2019-03-19T17:35:27.151Z,27.40
2019-03-19T17:36:31.517Z,27.85
2019-03-19T17:37:36.349Z,26.07
2019-03-19T17:39:34.046Z,24.27
2019-03-19T17:39:59.242Z,20.65
2019-03-19T17:41:08.396Z,22.52
2019-03-19T17:42:19.113Z,21.35
2019-03-19T17:43:52.971Z,25.50
2019-03-19T17:44:48.735Z,23.52
2019-03-19T17:45:55.055Z,27.73
2019-03-19T17:47:02.709Z,21.52
2019-03-19T17:48:16.097Z,28.47
2019-03-19T17:49:19.356Z,20.60
2019-03-19T17:50:39.854Z,20.55
2019-03-19T17:52:59.174Z,26.65
2019-03-19T17:54:07.822Z,24.40
2019-03-19T17:56:16.730Z,23.57
2019-03-19T17:57:01.963Z,24.45
2019-03-19T17:58:20.289Z,25.85
2019-03-19T17:59:24.393Z,25.40
2019-03-19T18:02:05.939Z,28.42
2019-03-19T18:03:16.781Z,25.40
2019-03-19T18:04:43.276Z,24.43
2019-03-19T18:10:34.970Z,27.07
2019-03-19T18:13:28.204Z,30.25
2019-03-19T18:13:47.790Z,26.23
2019-03-19T18:16:25.730Z,28.83
2019-03-19T18:19:24.363Z,25.85
2019-03-19T18:33:46.694Z,27.87
2019-03-19T18:40:47.968Z,34.35
2019-03-19T18:41:54.889Z,29.98
2019-03-19T18:43:07.730Z,29.30
2019-03-19T18:49:33.620Z,33.48
2019-03-19T18:51:53.627Z,27.90
2019-03-19T18:52:18.487Z,31.15
2019-03-19T18:52:57.856Z,28.32
2019-03-19T18:54:07.611Z,35.63
2019-03-19T18:55:15.900Z,32.85
2019-03-19T18:56:26.333Z,29.15
2019-03-19T18:57:44.646Z,31.82
2019-03-19T18:58:46.754Z,31.10
2019-03-19T18:59:50.939Z,31.42
2019-03-19T19:01:15.021Z,29.25
2019-03-19T19:03:55.345Z,25.37
2019-03-19T19:05:13.756Z,32.17
2019-03-19T19:06:23.378Z,28.60
2019-03-19T19:07:29.262Z,35.03
2019-03-19T19:08:36.762Z,28.98
2019-03-19T19:09:43.566Z,36.65
2019-03-19T19:10:56.784Z,29.12
2019-03-19T19:12:06.379Z,29.45
2019-03-19T19:13:22.299Z,32.38
2019-03-19T19:14:35.393Z,38.63
2019-03-19T19:16:14.707Z,36.85
2019-03-19T19:17:00.563Z,38.83
2019-03-19T19:18:20.275Z,34.03
2019-03-19T19:19:36.437Z,34.88
2019-03-19T19:20:47.091Z,36.88
2019-03-19T19:22:20.490Z,32.05
2019-03-19T19:23:07.044Z,33.67
2019-03-19T19:25:40.493Z,36.15
2019-03-19T19:26:00.358Z,37.80
2019-03-19T19:27:24.944Z,38.17
2019-03-19T19:28:33.061Z,33.58
2019-03-19T19:31:20.008Z,43.83
2019-03-19T19:32:34.733Z,33.95
2019-03-19T19:33:47.639Z,41.18
2019-03-19T19:35:11.698Z,40.10
2019-03-19T19:36:20.797Z,41.20
2019-03-19T19:37:39.373Z,42.58
2019-03-19T19:38:39.031Z,42.27
2019-03-19T19:39:44.195Z,37.42
2019-03-19T19:40:52.823Z,40.78
2019-03-19T19:42:00.220Z,38.92
2019-03-19T19:43:28.851Z,37.93
2019-03-19T19:44:45.027Z,36.05
2019-03-19T19:45:52.265Z,38.40
2019-03-19T19:48:33.403Z,41.75
2019-03-19T19:52:27.453Z,37.90
2019-03-19T19:53:47.615Z,42.05
2019-03-19T19:54:47.097Z,43.75
2019-03-19T19:55:52.190Z,45.75
2019-03-19T19:57:12.955Z,38.10
2019-03-19T19:58:18.398Z,40.38
2019-03-19T19:59:16.207Z,40.90
2019-03-19T20:00:25.988Z,42.17
2019-03-19T20:01:37.890Z,44.88
2019-03-19T20:02:45.813Z,39.50
2019-03-19T20:03:53.807Z,41.85
2019-03-19T20:05:02.973Z,43.48
2019-03-19T20:06:10.828Z,48.45
2019-03-19T20:07:32.558Z,36.63
2019-03-19T20:08:36.983Z,43.15
2019-03-19T20:09:50.846Z,42.93
2019-03-19T20:10:59.303Z,43.58
2019-03-19T20:12:12.202Z,40.03
2019-03-19T20:13:18.230Z,42.95
2019-03-19T20:14:24.219Z,44.10
2019-03-19T20:15:47.230Z,42.58
2019-03-19T20:16:59.749Z,43.60
2019-03-19T20:18:12.957Z,41.73
2019-03-19T20:19:18.808Z,40.40
2019-03-19T20:20:32.532Z,45.52
2019-03-19T20:21:47.393Z,39.75
2019-03-19T20:22:56.508Z,40.17
2019-03-19T20:24:17.928Z,37.15
2019-03-19T20:25:54.184Z,45.03
2019-03-19T20:26:57.989Z,44.67
2019-03-19T20:28:22.607Z,42.38
2019-03-19T20:32:34.310Z,38.55
2019-03-19T20:35:13.802Z,43.02
2019-03-19T20:36:30.604Z,39.40
2019-03-19T20:37:53.936Z,43.95
2019-03-19T20:40:48.222Z,44.08
2019-03-19T20:42:12.089Z,45.17
2019-03-19T20:45:04.223Z,41.10
2019-03-19T20:46:11.294Z,45.75
2019-03-19T20:47:45.157Z,46.77
2019-03-19T20:48:46.562Z,41.50
2019-03-19T20:49:50.245Z,42.00
2019-03-19T20:50:58.578Z,41.05
2019-03-19T20:52:28.009Z,43.40
2019-03-19T20:53:47.508Z,44.27
2019-03-19T20:55:02.395Z,40.80
2019-03-19T20:56:16.119Z,42.23
2019-03-19T21:02:37.624Z,43.28
2019-03-19T21:03:49.829Z,36.90
2019-03-19T21:05:09.289Z,37.83
2019-03-19T21:06:16.743Z,39.88
2019-03-19T21:08:16.435Z,38.67
2019-03-19T21:10:27.295Z,43.05
2019-03-19T21:11:54.589Z,41.50
2019-03-19T21:18:07.561Z,45.00
2019-03-19T21:37:57.621Z,48.40
2019-03-19T21:44:58.993Z,48.00
2019-03-19T21:46:37.684Z,48.87
2019-03-19T21:51:18.221Z,44.10
2019-03-19T21:53:12.172Z,55.28
2019-03-19T21:55:31.795Z,52.98
2019-03-19T21:57:23.430Z,46.65
2019-03-19T22:08:46.601Z,43.80
2019-03-19T22:09:49.604Z,43.85
2019-03-19T22:11:18.693Z,46.53
2019-03-19T22:20:35.512Z,42.73
2019-03-19T22:23:35.154Z,47.10
2019-03-19T22:24:52.755Z,44.48
2019-03-19T22:27:34.411Z,46.18
2019-03-19T22:34:21.396Z,47.35
2019-03-19T22:35:00.465Z,46.85
2019-03-19T22:36:08.679Z,44.00
2019-03-19T22:40:44.022Z,41.53
2019-03-19T22:41:56.273Z,46.90
2019-03-19T22:43:06.154Z,46.15
2019-03-19T22:44:22.867Z,40.25
2019-03-19T22:45:25.110Z,43.02
2019-03-19T22:48:23.358Z,45.03
2019-03-19T22:49:38.101Z,45.17
2019-03-19T22:50:57.391Z,45.17
2019-03-19T22:52:20.883Z,45.05
2019-03-19T22:53:42.118Z,47.17
2019-03-19T22:54:48.082Z,43.75
2019-03-19T22:56:19.088Z,41.25
2019-03-19T22:58:50.199Z,45.98
2019-03-19T22:59:59.434Z,44.40
2019-03-19T23:01:16.547Z,50.67
2019-03-19T23:03:57.371Z,44.08
2019-03-19T23:05:06.052Z,46.15
2019-03-19T23:06:29.084Z,44.48
2019-03-19T23:07:30.246Z,44.40
2019-03-19T23:08:37.822Z,37.10
2019-03-19T23:09:47.254Z,40.30
2019-03-19T23:10:57.460Z,39.48
2019-03-19T23:12:05.290Z,40.83
2019-03-19T23:13:19.440Z,46.58
2019-03-19T23:16:04.396Z,44.70
2019-03-19T23:17:08.941Z,44.90
2019-03-19T23:19:07.495Z,46.50
2019-03-19T23:19:49.398Z,39.25
2019-03-19T23:21:09.119Z,41.02
2019-03-19T23:22:31.531Z,41.88
2019-03-19T23:23:45.976Z,36.23
2019-03-19T23:24:51.841Z,40.92
2019-03-19T23:26:05.410Z,42.38
2019-03-19T23:27:14.273Z,44.63
2019-03-19T23:28:28.529Z,40.43
2019-03-19T23:29:31.192Z,42.10
2019-03-19T23:30:46.174Z,45.75
2019-03-19T23:31:58.450Z,41.08
2019-03-19T23:33:08.472Z,41.25
2019-03-19T23:34:14.955Z,47.27
2019-03-19T23:35:28.501Z,40.75
2019-03-19T23:36:30.335Z,39.60
2019-03-19T23:37:51.624Z,40.43
2019-03-19T23:39:15.146Z,46.45
2019-03-19T23:40:33.686Z,45.85
2019-03-19T23:41:41.196Z,42.35
2019-03-19T23:42:55.475Z,44.18
2019-03-19T23:44:09.243Z,44.25
2019-03-19T23:45:23.888Z,41.98
2019-03-19T23:46:40.162Z,48.25
2019-03-19T23:49:20.368Z,45.03
2019-03-19T23:50:42.427Z,45.63
2019-03-19T23:51:54.058Z,51.75
2019-03-19T23:54:23.898Z,41.95
2019-03-19T23:55:36.371Z,39.45
2019-03-19T23:56:56.081Z,41.77
2019-03-19T23:58:01.311Z,42.48
2019-03-19T23:59:06.996Z,41.70
